sensor_id;sensor_type;location;lat;lon;timestamp;pressure;altitude;pressure_sealevel;temperature;humidity
9325;BME280;4701;51.566;6.776;2022-08-03T05:03:16;101216.81;;;17.10;100.00
9325;BME280;4701;51.566;6.776;2022-08-03T05:05:18;101211.66;;;17.22;100.00
9325;BME280;4701;51.566;6.776;2022-08-03T05:07:20;101210.28;;;17.38;100.00
9325;BME280;4701;51.566;6.776;2022-08-03T05:09:21;101209.72;;;17.55;100.00
9325;BME280;4701;51.566;6.776;2022-08-03T05:11:23;101224.09;;;17.70;100.00
9325;BME280;4701;51.566;6.776;2022-08-03T05:13:25;101211.47;;;17.83;100.00
9325;BME280;4701;51.566;6.776;2022-08-03T05:15:28;101223.03;;;17.99;98.91
9325;BME280;4701;51.566;6.776;2022-08-03T05:17:29;101224.06;;;18.17;97.68
9325;BME280;4701;51.566;6.776;2022-08-03T05:19:34;101224.28;;;18.34;95.98
9325;BME280;4701;51.566;6.776;2022-08-03T05:21:37;101221.19;;;18.49;95.01
9325;BME280;4701;51.566;6.776;2022-08-03T05:23:38;101224.78;;;18.63;93.93
9325;BME280;4701;51.566;6.776;2022-08-03T05:25:40;101221.72;;;18.78;91.96
9325;BME280;4701;51.566;6.776;2022-08-03T05:27:42;101230.47;;;18.94;90.89
9325;BME280;4701;51.566;6.776;2022-08-03T05:29:44;101227.13;;;19.06;89.69
9325;BME280;4701;51.566;6.776;2022-08-03T05:31:47;101229.06;;;19.19;88.43
9325;BME280;4701;51.566;6.776;2022-08-03T05:33:49;101226.88;;;19.30;87.36
9325;BME280;4701;51.566;6.776;2022-08-03T05:35:53;101235.41;;;19.42;86.22
9325;BME280;4701;51.566;6.776;2022-08-03T05:37:55;101229.53;;;19.57;85.47
9325;BME280;4701;51.566;6.776;2022-08-03T05:39:57;101232.03;;;19.67;84.23
9325;BME280;4701;51.566;6.776;2022-08-03T05:41:59;101229.50;;;19.79;83.64
9325;BME280;4701;51.566;6.776;2022-08-03T05:44:03;101224.19;;;19.91;82.89
9325;BME280;4701;51.566;6.776;2022-08-03T05:46:05;101228.34;;;20.02;82.68
9325;BME280;4701;51.566;6.776;2022-08-03T05:48:10;101235.03;;;20.10;81.74
9325;BME280;4701;51.566;6.776;2022-08-03T05:50:13;101225.63;;;20.20;81.34
9325;BME280;4701;51.566;6.776;2022-08-03T05:52:16;101216.56;;;20.28;81.11
9325;BME280;4701;51.566;6.776;2022-08-03T05:54:18;101214.16;;;20.35;80.95
9325;BME280;4701;51.566;6.776;2022-08-03T05:56:21;101225.94;;;20.41;80.77
9325;BME280;4701;51.566;6.776;2022-08-03T05:58:24;101218.78;;;20.48;80.08
9325;BME280;4701;51.566;6.776;2022-08-03T06:00:26;101218.31;;;20.63;79.70
9325;BME280;4701;51.566;6.776;2022-08-03T06:02:27;101218.34;;;20.72;79.07
9325;BME280;4701;51.566;6.776;2022-08-03T06:04:29;101222.91;;;20.76;78.71
9325;BME280;4701;51.566;6.776;2022-08-03T06:06:31;101218.84;;;20.83;78.29
9325;BME280;4701;51.566;6.776;2022-08-03T06:08:34;101223.09;;;20.89;77.93
9325;BME280;4701;51.566;6.776;2022-08-03T06:10:37;101217.56;;;20.97;77.21
9325;BME280;4701;51.566;6.776;2022-08-03T06:12:38;101217.88;;;21.04;76.56
9325;BME280;4701;51.566;6.776;2022-08-03T06:14:40;101217.06;;;21.12;76.39
9325;BME280;4701;51.566;6.776;2022-08-03T06:16:42;101226.56;;;21.20;75.90
9325;BME280;4701;51.566;6.776;2022-08-03T06:18:44;101221.00;;;21.29;75.43
9325;BME280;4701;51.566;6.776;2022-08-03T06:20:49;101220.19;;;21.37;75.22
9325;BME280;4701;51.566;6.776;2022-08-03T06:22:51;101221.31;;;21.44;74.66
9325;BME280;4701;51.566;6.776;2022-08-03T06:24:55;101212.66;;;21.55;73.74
9325;BME280;4701;51.566;6.776;2022-08-03T06:27:01;101220.81;;;21.60;73.93
9325;BME280;4701;51.566;6.776;2022-08-03T06:29:04;101223.59;;;21.68;73.83
9325;BME280;4701;51.566;6.776;2022-08-03T06:31:06;101226.50;;;21.72;73.09
9325;BME280;4701;51.566;6.776;2022-08-03T06:33:09;101227.81;;;21.74;72.93
9325;BME280;4701;51.566;6.776;2022-08-03T06:35:11;101224.19;;;21.82;73.15
9325;BME280;4701;51.566;6.776;2022-08-03T06:37:13;101232.00;;;21.89;72.75
9325;BME280;4701;51.566;6.776;2022-08-03T06:39:15;101223.50;;;21.94;72.22
9325;BME280;4701;51.566;6.776;2022-08-03T06:41:20;101227.44;;;22.02;71.73
9325;BME280;4701;51.566;6.776;2022-08-03T06:43:22;101228.56;;;22.09;72.05
9325;BME280;4701;51.566;6.776;2022-08-03T06:45:25;101236.03;;;22.17;71.73
9325;BME280;4701;51.566;6.776;2022-08-03T06:47:28;101229.94;;;22.24;71.31
9325;BME280;4701;51.566;6.776;2022-08-03T06:49:30;101234.03;;;22.26;71.34
9325;BME280;4701;51.566;6.776;2022-08-03T06:51:32;101235.94;;;22.35;71.41
9325;BME280;4701;51.566;6.776;2022-08-03T06:53:33;101231.16;;;22.44;71.18
9325;BME280;4701;51.566;6.776;2022-08-03T06:55:36;101227.22;;;22.53;71.02
9325;BME280;4701;51.566;6.776;2022-08-03T06:57:39;101230.22;;;22.69;69.79
9325;BME280;4701;51.566;6.776;2022-08-03T06:59:41;101240.59;;;22.81;69.64
9325;BME280;4701;51.566;6.776;2022-08-03T07:01:43;101227.47;;;22.90;68.75
9325;BME280;4701;51.566;6.776;2022-08-03T07:03:45;101230.34;;;23.02;68.43
9325;BME280;4701;51.566;6.776;2022-08-03T07:05:47;101240.03;;;23.17;67.40
9325;BME280;4701;51.566;6.776;2022-08-03T07:07:53;101229.97;;;23.24;66.19
9325;BME280;4701;51.566;6.776;2022-08-03T07:09:56;101231.88;;;23.32;65.69
9325;BME280;4701;51.566;6.776;2022-08-03T07:11:57;101232.94;;;23.40;65.52
9325;BME280;4701;51.566;6.776;2022-08-03T07:14:03;101224.06;;;23.47;64.89
9325;BME280;4701;51.566;6.776;2022-08-03T07:16:04;101233.38;;;23.51;64.49
9325;BME280;4701;51.566;6.776;2022-08-03T07:18:07;101235.00;;;23.52;64.39
9325;BME280;4701;51.566;6.776;2022-08-03T07:20:09;101233.97;;;23.56;64.73
9325;BME280;4701;51.566;6.776;2022-08-03T07:22:12;101240.75;;;23.67;63.86
9325;BME280;4701;51.566;6.776;2022-08-03T07:24:14;101246.94;;;23.73;63.06
9325;BME280;4701;51.566;6.776;2022-08-03T07:26:16;101247.84;;;23.77;62.67
9325;BME280;4701;51.566;6.776;2022-08-03T07:28:18;101248.81;;;23.81;62.96
9325;BME280;4701;51.566;6.776;2022-08-03T07:30:21;101250.69;;;23.89;62.18
9325;BME280;4701;51.566;6.776;2022-08-03T07:32:24;101256.69;;;23.91;62.12
9325;BME280;4701;51.566;6.776;2022-08-03T07:34:25;101249.28;;;23.95;61.88
9325;BME280;4701;51.566;6.776;2022-08-03T07:36:27;101252.56;;;23.97;62.32
9325;BME280;4701;51.566;6.776;2022-08-03T07:38:29;101244.31;;;24.01;62.26
9325;BME280;4701;51.566;6.776;2022-08-03T07:40:31;101247.34;;;24.08;62.02
9325;BME280;4701;51.566;6.776;2022-08-03T07:42:33;101246.31;;;24.12;62.02
9325;BME280;4701;51.566;6.776;2022-08-03T07:44:35;101245.72;;;24.19;61.98
9325;BME280;4701;51.566;6.776;2022-08-03T07:46:38;101242.06;;;24.27;62.06
9325;BME280;4701;51.566;6.776;2022-08-03T07:48:40;101243.69;;;24.28;61.66
9325;BME280;4701;51.566;6.776;2022-08-03T07:50:42;101254.72;;;24.37;62.16
9325;BME280;4701;51.566;6.776;2022-08-03T07:52:43;101260.41;;;24.40;62.26
9325;BME280;4701;51.566;6.776;2022-08-03T07:54:52;101247.75;;;24.43;62.04
9325;BME280;4701;51.566;6.776;2022-08-03T07:56:54;101252.16;;;24.44;61.89
9325;BME280;4701;51.566;6.776;2022-08-03T07:58:56;101251.13;;;24.48;61.59
9325;BME280;4701;51.566;6.776;2022-08-03T08:00:59;101241.03;;;24.56;61.88
9325;BME280;4701;51.566;6.776;2022-08-03T08:03:02;101242.97;;;24.68;61.30
9325;BME280;4701;51.566;6.776;2022-08-03T08:05:05;101247.19;;;24.74;60.75
9325;BME280;4701;51.566;6.776;2022-08-03T08:07:08;101249.25;;;24.77;60.59
9325;BME280;4701;51.566;6.776;2022-08-03T08:09:10;101242.28;;;24.83;60.94
9325;BME280;4701;51.566;6.776;2022-08-03T08:11:12;101251.47;;;24.96;59.96
9325;BME280;4701;51.566;6.776;2022-08-03T08:13:14;101252.75;;;24.98;59.79
9325;BME280;4701;51.566;6.776;2022-08-03T08:15:16;101246.34;;;24.98;59.30
9325;BME280;4701;51.566;6.776;2022-08-03T08:17:18;101254.59;;;25.06;59.13
9325;BME280;4701;51.566;6.776;2022-08-03T08:19:21;101249.00;;;25.06;58.77
9325;BME280;4701;51.566;6.776;2022-08-03T08:21:23;101243.44;;;25.06;59.07
9325;BME280;4701;51.566;6.776;2022-08-03T08:23:25;101234.78;;;25.11;59.59
9325;BME280;4701;51.566;6.776;2022-08-03T08:25:28;101237.09;;;25.21;59.40
9325;BME280;4701;51.566;6.776;2022-08-03T08:27:31;101243.00;;;25.32;58.34
9325;BME280;4701;51.566;6.776;2022-08-03T08:29:33;101240.28;;;25.36;58.44
9325;BME280;4701;51.566;6.776;2022-08-03T08:31:34;101242.66;;;25.34;57.20
9325;BME280;4701;51.566;6.776;2022-08-03T08:33:36;101247.06;;;25.35;57.75
9325;BME280;4701;51.566;6.776;2022-08-03T08:35:39;101243.66;;;25.41;57.04
9325;BME280;4701;51.566;6.776;2022-08-03T08:37:41;101236.66;;;25.47;57.64
9325;BME280;4701;51.566;6.776;2022-08-03T08:39:43;101236.31;;;25.49;56.96
9325;BME280;4701;51.566;6.776;2022-08-03T08:41:45;101233.03;;;25.47;56.23
9325;BME280;4701;51.566;6.776;2022-08-03T08:43:47;101235.84;;;25.47;56.03
9325;BME280;4701;51.566;6.776;2022-08-03T08:45:51;101238.41;;;25.52;56.34
9325;BME280;4701;51.566;6.776;2022-08-03T08:47:54;101237.56;;;25.51;56.77
9325;BME280;4701;51.566;6.776;2022-08-03T08:49:57;101234.53;;;25.56;56.16
9325;BME280;4701;51.566;6.776;2022-08-03T08:52:02;101240.09;;;25.69;56.43
9325;BME280;4701;51.566;6.776;2022-08-03T08:54:07;101235.69;;;25.83;56.77
9325;BME280;4701;51.566;6.776;2022-08-03T08:56:11;101230.66;;;25.89;54.82
9325;BME280;4701;51.566;6.776;2022-08-03T08:58:15;101235.06;;;25.90;55.04
9325;BME280;4701;51.566;6.776;2022-08-03T09:00:19;101231.09;;;25.91;54.87
9325;BME280;4701;51.566;6.776;2022-08-03T09:02:21;101237.22;;;25.96;54.89
9325;BME280;4701;51.566;6.776;2022-08-03T09:04:23;101229.78;;;26.00;54.64
9325;BME280;4701;51.566;6.776;2022-08-03T09:06:25;101230.66;;;26.05;54.87
9325;BME280;4701;51.566;6.776;2022-08-03T09:08:30;101230.31;;;26.22;53.14
9325;BME280;4701;51.566;6.776;2022-08-03T09:10:32;101220.94;;;26.30;53.26
9325;BME280;4701;51.566;6.776;2022-08-03T09:12:37;101226.81;;;26.41;54.06
9325;BME280;4701;51.566;6.776;2022-08-03T09:14:39;101236.72;;;26.38;52.76
9325;BME280;4701;51.566;6.776;2022-08-03T09:16:55;101232.84;;;26.43;52.93
9325;BME280;4701;51.566;6.776;2022-08-03T09:19:10;101226.53;;;26.46;52.75
9325;BME280;4701;51.566;6.776;2022-08-03T09:21:19;101238.53;;;26.46;52.67
9325;BME280;4701;51.566;6.776;2022-08-03T09:23:21;101235.53;;;26.55;53.12
9325;BME280;4701;51.566;6.776;2022-08-03T09:25:29;101232.28;;;26.68;52.61
9325;BME280;4701;51.566;6.776;2022-08-03T09:27:40;101237.41;;;26.66;51.24
9325;BME280;4701;51.566;6.776;2022-08-03T09:29:46;101241.75;;;26.64;51.61
9325;BME280;4701;51.566;6.776;2022-08-03T09:31:48;101236.59;;;26.66;52.25
9325;BME280;4701;51.566;6.776;2022-08-03T09:33:51;101238.91;;;26.80;51.52
9325;BME280;4701;51.566;6.776;2022-08-03T09:35:59;101240.34;;;26.89;51.42
9325;BME280;4701;51.566;6.776;2022-08-03T09:38:12;101232.50;;;26.95;50.35
9325;BME280;4701;51.566;6.776;2022-08-03T09:40:34;101236.63;;;27.01;50.64
9325;BME280;4701;51.566;6.776;2022-08-03T09:42:36;101233.75;;;26.97;49.91
9325;BME280;4701;51.566;6.776;2022-08-03T09:44:56;101237.31;;;26.94;48.52
9325;BME280;4701;51.566;6.776;2022-08-03T09:46:58;101231.44;;;26.84;48.57
9325;BME280;4701;51.566;6.776;2022-08-03T09:49:10;101240.28;;;26.86;49.28
9325;BME280;4701;51.566;6.776;2022-08-03T09:51:12;101231.34;;;26.96;48.81
9325;BME280;4701;51.566;6.776;2022-08-03T09:53:14;101229.41;;;27.00;48.49
9325;BME280;4701;51.566;6.776;2022-08-03T09:55:17;101226.25;;;27.01;48.57
9325;BME280;4701;51.566;6.776;2022-08-03T09:57:25;101230.53;;;27.15;48.29
9325;BME280;4701;51.566;6.776;2022-08-03T09:59:28;101230.50;;;27.30;48.35
9325;BME280;4701;51.566;6.776;2022-08-03T10:01:31;101224.06;;;27.30;48.12
9325;BME280;4701;51.566;6.776;2022-08-03T10:03:37;101221.19;;;27.26;48.74
9325;BME280;4701;51.566;6.776;2022-08-03T10:05:39;101223.53;;;27.43;48.69
9325;BME280;4701;51.566;6.776;2022-08-03T10:07:45;101220.75;;;27.63;47.32
9325;BME280;4701;51.566;6.776;2022-08-03T10:09:55;101229.28;;;27.70;46.98
9325;BME280;4701;51.566;6.776;2022-08-03T10:12:05;101225.91;;;27.61;46.62
9325;BME280;4701;51.566;6.776;2022-08-03T10:14:11;101226.00;;;27.64;47.11
9325;BME280;4701;51.566;6.776;2022-08-03T10:16:18;101221.34;;;27.72;47.67
9325;BME280;4701;51.566;6.776;2022-08-03T10:18:20;101213.22;;;27.67;47.47
9325;BME280;4701;51.566;6.776;2022-08-03T10:20:22;101211.44;;;27.78;45.89
9325;BME280;4701;51.566;6.776;2022-08-03T10:22:26;101221.56;;;27.63;45.44
9325;BME280;4701;51.566;6.776;2022-08-03T10:24:29;101227.69;;;27.69;45.98
9325;BME280;4701;51.566;6.776;2022-08-03T10:26:37;101211.69;;;27.69;46.51
9325;BME280;4701;51.566;6.776;2022-08-03T10:28:41;101217.50;;;27.80;45.98
9325;BME280;4701;51.566;6.776;2022-08-03T10:30:51;101212.00;;;27.87;47.25
9325;BME280;4701;51.566;6.776;2022-08-03T10:32:55;101214.94;;;27.94;46.36
9325;BME280;4701;51.566;6.776;2022-08-03T10:35:03;101212.13;;;27.94;46.89
9325;BME280;4701;51.566;6.776;2022-08-03T10:37:09;101215.00;;;27.98;45.59
9325;BME280;4701;51.566;6.776;2022-08-03T10:39:12;101209.00;;;27.99;45.22
9325;BME280;4701;51.566;6.776;2022-08-03T10:41:15;101204.28;;;28.03;45.40
9325;BME280;4701;51.566;6.776;2022-08-03T10:43:19;101206.84;;;27.89;45.01
9325;BME280;4701;51.566;6.776;2022-08-03T10:45:24;101207.72;;;27.93;44.65
9325;BME280;4701;51.566;6.776;2022-08-03T10:47:28;101202.09;;;27.93;44.29
9325;BME280;4701;51.566;6.776;2022-08-03T10:49:31;101197.50;;;28.04;45.62
9325;BME280;4701;51.566;6.776;2022-08-03T10:51:33;101199.69;;;28.14;44.39
9325;BME280;4701;51.566;6.776;2022-08-03T10:53:36;101192.53;;;28.17;44.65
9325;BME280;4701;51.566;6.776;2022-08-03T10:55:41;101190.34;;;28.30;44.36
9325;BME280;4701;51.566;6.776;2022-08-03T10:58:00;101186.66;;;28.48;44.09
9325;BME280;4701;51.566;6.776;2022-08-03T11:00:03;101197.16;;;28.55;44.15
9325;BME280;4701;51.566;6.776;2022-08-03T11:02:06;101196.19;;;28.44;43.43
9325;BME280;4701;51.566;6.776;2022-08-03T11:04:17;101187.66;;;28.37;43.96
9325;BME280;4701;51.566;6.776;2022-08-03T11:06:21;101176.06;;;28.38;44.58
9325;BME280;4701;51.566;6.776;2022-08-03T11:08:26;101183.84;;;28.48;43.84
9325;BME280;4701;51.566;6.776;2022-08-03T11:10:30;101174.00;;;28.61;43.50
9325;BME280;4701;51.566;6.776;2022-08-03T11:12:32;101180.34;;;28.81;42.83
9325;BME280;4701;51.566;6.776;2022-08-03T11:14:45;101179.19;;;28.86;43.17
9325;BME280;4701;51.566;6.776;2022-08-03T11:16:49;101174.09;;;28.69;42.47
9325;BME280;4701;51.566;6.776;2022-08-03T11:18:56;101178.72;;;28.80;42.64
9325;BME280;4701;51.566;6.776;2022-08-03T11:21:00;101171.81;;;28.74;42.93
9325;BME280;4701;51.566;6.776;2022-08-03T11:23:02;101165.94;;;28.83;42.51
9325;BME280;4701;51.566;6.776;2022-08-03T11:25:05;101174.00;;;28.88;42.98
9325;BME280;4701;51.566;6.776;2022-08-03T11:27:18;101174.88;;;28.92;42.77
9325;BME280;4701;51.566;6.776;2022-08-03T11:29:26;101179.75;;;28.98;41.67
9325;BME280;4701;51.566;6.776;2022-08-03T11:31:55;101167.88;;;28.79;42.97
9325;BME280;4701;51.566;6.776;2022-08-03T11:34:04;101163.06;;;28.79;43.51
9325;BME280;4701;51.566;6.776;2022-08-03T11:36:07;101160.31;;;28.83;43.53
9325;BME280;4701;51.566;6.776;2022-08-03T11:38:10;101165.81;;;29.06;42.65
9325;BME280;4701;51.566;6.776;2022-08-03T11:40:32;101169.16;;;29.15;42.00
9325;BME280;4701;51.566;6.776;2022-08-03T11:42:41;101168.28;;;29.11;41.31
9325;BME280;4701;51.566;6.776;2022-08-03T11:44:48;101165.81;;;29.06;42.58
9325;BME280;4701;51.566;6.776;2022-08-03T11:46:50;101165.16;;;29.16;41.69
9325;BME280;4701;51.566;6.776;2022-08-03T11:48:53;101155.56;;;29.20;40.77
9325;BME280;4701;51.566;6.776;2022-08-03T11:51:03;101160.13;;;29.32;39.50
9325;BME280;4701;51.566;6.776;2022-08-03T11:53:13;101175.78;;;29.33;39.83
9325;BME280;4701;51.566;6.776;2022-08-03T11:55:18;101164.84;;;29.24;40.63
9325;BME280;4701;51.566;6.776;2022-08-03T11:57:27;101153.56;;;29.21;39.90
9325;BME280;4701;51.566;6.776;2022-08-03T11:59:31;101152.56;;;29.36;40.13
9325;BME280;4701;51.566;6.776;2022-08-03T12:01:33;101155.09;;;29.48;39.98
9325;BME280;4701;51.566;6.776;2022-08-03T12:03:35;101156.47;;;29.65;39.14
9325;BME280;4701;51.566;6.776;2022-08-03T12:05:54;101158.22;;;29.80;39.20
9325;BME280;4701;51.566;6.776;2022-08-03T12:07:56;101153.13;;;29.93;39.44
9325;BME280;4701;51.566;6.776;2022-08-03T12:10:07;101160.75;;;29.92;40.27
9325;BME280;4701;51.566;6.776;2022-08-03T12:12:09;101146.66;;;29.89;40.20
9325;BME280;4701;51.566;6.776;2022-08-03T12:14:16;101155.22;;;29.99;39.92
9325;BME280;4701;51.566;6.776;2022-08-03T12:16:19;101154.91;;;30.08;39.09
9325;BME280;4701;51.566;6.776;2022-08-03T12:18:22;101148.09;;;30.13;38.52
9325;BME280;4701;51.566;6.776;2022-08-03T12:20:26;101151.72;;;30.13;37.80
9325;BME280;4701;51.566;6.776;2022-08-03T12:22:32;101141.31;;;30.21;39.00
9325;BME280;4701;51.566;6.776;2022-08-03T12:24:39;101151.06;;;30.34;37.59
9325;BME280;4701;51.566;6.776;2022-08-03T12:26:47;101138.97;;;30.26;37.71
9325;BME280;4701;51.566;6.776;2022-08-03T12:28:50;101142.97;;;30.25;37.92
9325;BME280;4701;51.566;6.776;2022-08-03T12:30:52;101147.03;;;30.31;36.14
9325;BME280;4701;51.566;6.776;2022-08-03T12:32:54;101138.66;;;30.42;36.25
9325;BME280;4701;51.566;6.776;2022-08-03T12:34:56;101146.00;;;30.54;36.89
9325;BME280;4701;51.566;6.776;2022-08-03T12:37:04;101136.44;;;30.69;37.20
9325;BME280;4701;51.566;6.776;2022-08-03T12:39:07;101141.72;;;30.81;37.15
9325;BME280;4701;51.566;6.776;2022-08-03T12:41:11;101130.09;;;30.90;36.61
9325;BME280;4701;51.566;6.776;2022-08-03T12:43:16;101134.53;;;30.91;36.70
9325;BME280;4701;51.566;6.776;2022-08-03T12:45:20;101141.31;;;30.82;37.47
9325;BME280;4701;51.566;6.776;2022-08-03T12:47:22;101136.88;;;30.71;38.36
9325;BME280;4701;51.566;6.776;2022-08-03T12:49:25;101136.03;;;30.67;37.56
9325;BME280;4701;51.566;6.776;2022-08-03T12:51:27;101139.25;;;30.69;38.55
9325;BME280;4701;51.566;6.776;2022-08-03T12:53:29;101133.22;;;30.67;37.10
9325;BME280;4701;51.566;6.776;2022-08-03T12:55:35;101145.69;;;30.73;35.83
9325;BME280;4701;51.566;6.776;2022-08-03T12:57:40;101138.44;;;30.68;35.77
9325;BME280;4701;51.566;6.776;2022-08-03T12:59:45;101134.41;;;30.62;36.16
9325;BME280;4701;51.566;6.776;2022-08-03T13:01:48;101134.00;;;30.64;36.79
9325;BME280;4701;51.566;6.776;2022-08-03T13:03:51;101133.63;;;30.72;37.13
9325;BME280;4701;51.566;6.776;2022-08-03T13:05:53;101136.09;;;30.81;36.16
9325;BME280;4701;51.566;6.776;2022-08-03T13:07:57;101131.72;;;30.87;36.49
9325;BME280;4701;51.566;6.776;2022-08-03T13:09:59;101135.34;;;30.98;36.20
9325;BME280;4701;51.566;6.776;2022-08-03T13:12:06;101134.97;;;30.96;37.46
9325;BME280;4701;51.566;6.776;2022-08-03T13:14:08;101136.94;;;30.92;36.50
9325;BME280;4701;51.566;6.776;2022-08-03T13:18:17;101125.88;;;31.56;36.21
9325;BME280;4701;51.566;6.776;2022-08-03T13:20:19;101131.94;;;31.65;34.97
9325;BME280;4701;51.566;6.776;2022-08-03T13:22:22;101130.75;;;31.91;34.85
9325;BME280;4701;51.566;6.776;2022-08-03T13:24:24;101131.97;;;32.08;34.15
9325;BME280;4701;51.566;6.776;2022-08-03T13:26:26;101126.34;;;32.22;33.86
9325;BME280;4701;51.566;6.776;2022-08-03T13:28:27;101125.06;;;32.51;33.81
9325;BME280;4701;51.566;6.776;2022-08-03T13:30:29;101121.25;;;33.04;32.81
9325;BME280;4701;51.566;6.776;2022-08-03T13:32:31;101123.41;;;33.59;32.53
9325;BME280;4701;51.566;6.776;2022-08-03T13:34:35;101122.59;;;34.10;31.14
9325;BME280;4701;51.566;6.776;2022-08-03T13:36:37;101115.50;;;34.32;31.17
9325;BME280;4701;51.566;6.776;2022-08-03T13:38:39;101117.16;;;34.67;30.02
9325;BME280;4701;51.566;6.776;2022-08-03T13:40:41;101104.63;;;34.99;29.64
9325;BME280;4701;51.566;6.776;2022-08-03T13:42:43;101116.66;;;34.76;29.22
9325;BME280;4701;51.566;6.776;2022-08-03T13:44:45;101112.53;;;34.46;29.76
9325;BME280;4701;51.566;6.776;2022-08-03T13:46:47;101108.72;;;34.23;29.91
9325;BME280;4701;51.566;6.776;2022-08-03T13:48:50;101109.50;;;33.82;29.83
9325;BME280;4701;51.566;6.776;2022-08-03T13:50:53;101101.72;;;33.41;30.74
9325;BME280;4701;51.566;6.776;2022-08-03T13:52:55;101105.41;;;33.28;31.87
9325;BME280;4701;51.566;6.776;2022-08-03T13:54:57;101097.34;;;33.30;32.18
9325;BME280;4701;51.566;6.776;2022-08-03T13:56:59;101104.22;;;33.29;31.10
9325;BME280;4701;51.566;6.776;2022-08-03T13:59:01;101089.81;;;33.64;30.80
9325;BME280;4701;51.566;6.776;2022-08-03T14:01:03;101095.53;;;33.57;30.51
9325;BME280;4701;51.566;6.776;2022-08-03T14:03:05;101097.75;;;33.32;30.18
9325;BME280;4701;51.566;6.776;2022-08-03T14:05:07;101097.28;;;33.40;30.69
9325;BME280;4701;51.566;6.776;2022-08-03T14:07:10;101099.41;;;33.22;30.11
9325;BME280;4701;51.566;6.776;2022-08-03T14:09:15;101092.25;;;32.96;30.91
9325;BME280;4701;51.566;6.776;2022-08-03T14:11:17;101100.00;;;32.78;31.06
9325;BME280;4701;51.566;6.776;2022-08-03T14:13:19;101088.50;;;33.21;30.05
9325;BME280;4701;51.566;6.776;2022-08-03T14:15:24;101094.66;;;33.67;29.78
9325;BME280;4701;51.566;6.776;2022-08-03T14:17:27;101092.66;;;33.61;29.99
9325;BME280;4701;51.566;6.776;2022-08-03T14:19:29;101096.53;;;33.33;29.82
9325;BME280;4701;51.566;6.776;2022-08-03T14:21:32;101097.69;;;33.42;30.35
9325;BME280;4701;51.566;6.776;2022-08-03T14:23:36;101090.81;;;33.40;30.09
9325;BME280;4701;51.566;6.776;2022-08-03T14:25:38;101085.19;;;33.36;30.76
9325;BME280;4701;51.566;6.776;2022-08-03T14:27:40;101086.72;;;33.48;30.18
9325;BME280;4701;51.566;6.776;2022-08-03T14:29:42;101075.78;;;33.54;30.51
9325;BME280;4701;51.566;6.776;2022-08-03T14:31:44;101087.72;;;33.79;30.43
9325;BME280;4701;51.566;6.776;2022-08-03T14:33:46;101086.06;;;33.82;30.23
9325;BME280;4701;51.566;6.776;2022-08-03T14:35:48;101080.75;;;33.91;30.58
9325;BME280;4701;51.566;6.776;2022-08-03T14:37:50;101082.09;;;33.72;30.03
9325;BME280;4701;51.566;6.776;2022-08-03T14:39:53;101084.16;;;33.02;30.06
9325;BME280;4701;51.566;6.776;2022-08-03T14:41:55;101085.91;;;32.67;30.15
9325;BME280;4701;51.566;6.776;2022-08-03T14:43:57;101080.81;;;32.27;31.30
9325;BME280;4701;51.566;6.776;2022-08-03T14:46:01;101082.03;;;32.12;32.37
9325;BME280;4701;51.566;6.776;2022-08-03T14:48:03;101083.63;;;32.02;32.37
9325;BME280;4701;51.566;6.776;2022-08-03T14:50:06;101076.78;;;32.10;32.90
9325;BME280;4701;51.566;6.776;2022-08-03T14:52:08;101081.22;;;32.29;32.32
9325;BME280;4701;51.566;6.776;2022-08-03T14:54:10;101072.66;;;32.50;32.23
9325;BME280;4701;51.566;6.776;2022-08-03T14:56:13;101073.84;;;32.71;31.10
9325;BME280;4701;51.566;6.776;2022-08-03T14:58:15;101070.94;;;32.88;31.63
9325;BME280;4701;51.566;6.776;2022-08-03T15:00:17;101075.69;;;33.02;30.87
9325;BME280;4701;51.566;6.776;2022-08-03T15:02:19;101069.22;;;33.09;30.20
9325;BME280;4701;51.566;6.776;2022-08-03T15:04:21;101070.03;;;33.02;29.71
9325;BME280;4701;51.566;6.776;2022-08-03T15:06:23;101061.25;;;32.89;30.52
9325;BME280;4701;51.566;6.776;2022-08-03T15:08:25;101059.69;;;32.78;31.04
9325;BME280;4701;51.566;6.776;2022-08-03T15:10:27;101055.66;;;32.68;31.13
9325;BME280;4701;51.566;6.776;2022-08-03T15:12:30;101054.88;;;32.67;31.20
9325;BME280;4701;51.566;6.776;2022-08-03T15:14:32;101044.00;;;32.69;32.21
9325;BME280;4701;51.566;6.776;2022-08-03T15:16:34;101057.34;;;32.55;31.49
9325;BME280;4701;51.566;6.776;2022-08-03T15:18:36;101054.16;;;32.49;32.11
9325;BME280;4701;51.566;6.776;2022-08-03T15:20:38;101050.53;;;32.49;32.01
9325;BME280;4701;51.566;6.776;2022-08-03T15:22:40;101049.28;;;32.57;31.96
9325;BME280;4701;51.566;6.776;2022-08-03T15:24:42;101044.44;;;32.57;32.35
9325;BME280;4701;51.566;6.776;2022-08-03T15:26:44;101052.47;;;32.73;31.59
9325;BME280;4701;51.566;6.776;2022-08-03T15:28:47;101034.34;;;32.63;30.47
9325;BME280;4701;51.566;6.776;2022-08-03T15:30:50;101044.00;;;32.66;30.50
9325;BME280;4701;51.566;6.776;2022-08-03T15:32:52;101042.81;;;32.63;30.19
9325;BME280;4701;51.566;6.776;2022-08-03T15:34:54;101041.63;;;32.57;30.32
9325;BME280;4701;51.566;6.776;2022-08-03T15:36:56;101053.72;;;32.54;32.09
9325;BME280;4701;51.566;6.776;2022-08-03T15:38:58;101055.81;;;32.40;30.65
9325;BME280;4701;51.566;6.776;2022-08-03T15:41:00;101050.59;;;32.17;31.50
9325;BME280;4701;51.566;6.776;2022-08-03T15:43:02;101055.03;;;32.04;30.68
9325;BME280;4701;51.566;6.776;2022-08-03T15:45:06;101053.44;;;31.92;31.86
9325;BME280;4701;51.566;6.776;2022-08-03T15:47:08;101048.63;;;31.89;31.83
9325;BME280;4701;51.566;6.776;2022-08-03T15:49:10;101055.84;;;32.18;31.80
9325;BME280;4701;51.566;6.776;2022-08-03T15:51:12;101050.19;;;32.33;30.88
9325;BME280;4701;51.566;6.776;2022-08-03T15:53:14;101051.00;;;32.29;31.72
9325;BME280;4701;51.566;6.776;2022-08-03T15:55:16;101045.31;;;32.40;31.65
9325;BME280;4701;51.566;6.776;2022-08-03T15:57:18;101052.53;;;32.45;31.68
9325;BME280;4701;51.566;6.776;2022-08-03T15:59:20;101030.38;;;32.43;31.21
9325;BME280;4701;51.566;6.776;2022-08-03T16:01:24;101039.09;;;32.84;31.43
9325;BME280;4701;51.566;6.776;2022-08-03T16:03:27;101033.69;;;33.11;31.33
9325;BME280;4701;51.566;6.776;2022-08-03T16:05:33;101038.22;;;32.98;31.15
9325;BME280;4701;51.566;6.776;2022-08-03T16:07:38;101034.13;;;33.06;31.31